Time;durP1;ratioP1;P1;durP2;ratioP2;P2;SDS_P1;SDS_P2;PMS_P1;PMS_P2;Temp;Humidity;BMP_temperature;BMP_pressure;BME280_temperature;BME280_humidity;BME280_pressure;Samples;Min_cycle;Max_cycle;Signal;HPM_P1;HPM_P2
2021/03/02 00:01:08;;;;;;;14.70;4.75;;;;;;;1.54;100.00;101385.09;5061304;28;20063;-79
2021/03/02 00:04:12;;;;;;;11.85;5.43;;;;;;;1.51;100.00;101383.94;5073351;28;20051;-78
2021/03/02 00:07:16;;;;;;;15.93;4.30;;;;;;;1.50;100.00;101385.09;5060954;28;20067;-78
2021/03/02 00:10:20;;;;;;;5.57;2.83;;;;;;;1.49;100.00;101388.97;5060873;28;20047;-79
2021/03/02 00:13:24;;;;;;;7.85;2.58;;;;;;;1.47;100.00;101391.31;5073005;28;20039;-79
2021/03/02 00:16:27;;;;;;;8.85;3.22;;;;;;;1.47;100.00;101391.31;5060148;28;20048;-79
2021/03/02 00:19:47;;;;;;;14.20;5.18;;;;;;;1.47;100.00;101390.53;5060601;28;20428;-79
2021/03/02 00:23:07;;;;;;;10.52;4.32;;;;;;;1.50;100.00;101390.56;5060204;28;20051;-79
2021/03/02 00:26:13;;;;;;;11.18;4.50;;;;;;;1.52;100.00;101388.25;5072711;28;20091;-78
2021/03/02 00:29:17;;;;;;;12.05;4.40;;;;;;;1.54;100.00;101387.84;5072897;28;20051;-79
2021/03/02 00:32:22;;;;;;;10.18;4.28;;;;;;;1.56;100.00;101388.25;5060267;28;20039;-79
2021/03/02 00:35:25;;;;;;;5.97;3.03;;;;;;;1.58;100.00;101396.16;5060315;28;20052;-79
2021/03/02 00:38:29;;;;;;;13.60;4.43;;;;;;;1.57;100.00;101389.06;5060016;28;20055;-79
2021/03/02 00:41:33;;;;;;;8.23;3.47;;;;;;;1.53;100.00;101384.34;5060365;28;20138;-79
2021/03/02 00:44:36;;;;;;;7.88;4.18;;;;;;;1.51;100.00;101386.69;5060566;28;20056;-79
2021/03/02 00:47:40;;;;;;;21.50;4.30;;;;;;;1.48;100.00;101392.91;5073496;28;20047;-79
2021/03/02 00:50:44;;;;;;;5.47;3.75;;;;;;;1.43;100.00;101389.69;5059866;28;20047;-79
2021/03/02 00:53:47;;;;;;;8.27;2.67;;;;;;;1.41;100.00;101392.81;5020907;28;20036;-79
2021/03/02 00:56:50;;;;;;;17.83;4.53;;;;;;;1.41;100.00;101392.81;5017325;28;20256;-79
2021/03/02 00:59:54;;;;;;;15.63;4.28;;;;;;;1.39;100.00;101392.41;5040608;28;21006;-79
2021/03/02 01:02:58;;;;;;;11.50;3.13;;;;;;;1.38;100.00;101399.09;5028504;28;20142;-79
2021/03/02 01:06:02;;;;;;;10.90;4.03;;;;;;;1.37;100.00;101391.19;5040295;28;20060;-78
2021/03/02 01:09:08;;;;;;;14.15;4.10;;;;;;;1.36;100.00;101401.41;5029375;28;20047;-79
2021/03/02 01:12:12;;;;;;;16.58;2.25;;;;;;;1.36;100.00;101390.44;5018757;28;20165;-79
2021/03/02 01:15:15;;;;;;;14.68;3.75;;;;;;;1.38;100.00;101396.34;5040067;28;20280;-79
2021/03/02 01:18:19;;;;;;;10.35;4.18;;;;;;;1.40;100.00;101390.47;5039786;28;20265;-79
2021/03/02 01:21:22;;;;;;;19.23;4.32;;;;;;;1.40;100.00;101384.97;5018829;28;20040;-79
2021/03/02 01:24:26;;;;;;;10.18;3.58;;;;;;;1.41;100.00;101386.53;5017895;28;20398;-79
2021/03/02 01:27:30;;;;;;;8.90;2.67;;;;;;;1.39;100.00;101391.63;5021009;28;20257;-79
2021/03/02 01:30:33;;;;;;;10.63;3.95;;;;;;;1.39;100.00;101395.16;5030629;28;20476;-78
2021/03/02 01:33:37;;;;;;;8.68;3.83;;;;;;;1.39;100.00;101386.94;5019950;28;20172;-78
2021/03/02 01:36:40;;;;;;;5.80;3.20;;;;;;;1.36;100.00;101384.94;5029924;28;20646;-78
2021/03/02 01:39:44;;;;;;;18.58;2.65;;;;;;;1.38;100.00;101392.81;5016600;28;20265;-79
2021/03/02 01:42:47;;;;;;;10.52;3.28;;;;;;;1.34;100.00;101400.22;5015846;28;20071;-80
2021/03/02 01:45:51;;;;;;;9.15;2.88;;;;;;;1.31;100.00;101390.75;5028347;28;20492;-79
2021/03/02 01:48:55;;;;;;;9.32;3.13;;;;;;;1.27;100.00;101389.16;5016879;28;20249;-79
2021/03/02 01:51:58;;;;;;;3.88;2.60;;;;;;;1.18;100.00;101391.38;5029124;28;20043;-79
2021/03/02 01:55:04;;;;;;;6.22;2.15;;;;;;;1.11;100.00;101389.34;5015891;28;20044;-79
2021/03/02 01:58:08;;;;;;;5.43;2.33;;;;;;;1.04;100.00;101394.75;5022240;28;20032;-79
2021/03/02 02:01:11;;;;;;;19.63;5.28;;;;;;;1.03;100.00;101392.38;5027341;28;20326;-79
2021/03/02 02:04:26;;;;;;;4.70;2.22;;;;;;;1.03;100.00;101386.91;5015900;28;20072;-79
2021/03/02 02:07:37;;;;;;;11.43;3.25;;;;;;;1.03;100.00;101387.69;5015334;28;20059;-79
2021/03/02 02:11:26;;;;;;;5.75;1.80;;;;;;;1.02;100.00;101390.81;5015565;28;20059;-79
2021/03/02 02:14:53;;;;;;;12.13;2.67;;;;;;;1.03;100.00;101398.66;5031912;28;20257;-79
2021/03/02 02:18:05;;;;;;;10.85;3.45;;;;;;;1.04;100.00;101389.25;5019008;28;20067;-79
2021/03/02 02:21:09;;;;;;;3.05;1.58;;;;;;;1.05;100.00;101388.09;5031197;28;20063;-79
2021/03/02 02:24:23;;;;;;;6.50;2.45;;;;;;;1.07;100.00;101374.00;5030990;28;20244;-79
2021/03/02 02:27:28;;;;;;;13.65;4.00;;;;;;;1.08;100.00;101372.84;5062606;28;20405;-79
2021/03/02 02:30:33;;;;;;;4.30;2.15;;;;;;;1.10;100.00;101376.81;5074963;28;20056;-79
2021/03/02 02:33:41;;;;;;;5.43;2.50;;;;;;;1.11;100.00;101372.09;5062368;28;20436;-79
2021/03/02 02:36:52;;;;;;;2.08;1.75;;;;;;;1.13;100.00;101365.06;5074959;28;20044;-79
2021/03/02 02:39:56;;;;;;;5.40;2.30;;;;;;;1.16;100.00;101369.81;5062324;28;20051;-79
2021/03/02 02:43:02;;;;;;;17.27;3.55;;;;;;;1.16;100.00;101358.84;5061822;28;20332;-79
2021/03/02 02:46:07;;;;;;;13.40;3.33;;;;;;;1.17;100.00;101360.41;5062162;28;20067;-79
2021/03/02 02:49:12;;;;;;;7.57;2.33;;;;;;;1.16;100.00;101353.34;5062817;28;20519;-79
2021/03/02 02:52:16;;;;;;;7.68;2.33;;;;;;;1.17;100.00;101349.44;5062364;28;20051;-79
2021/03/02 02:55:30;;;;;;;16.75;3.00;;;;;;;1.18;100.00;101356.50;5074654;28;20052;-79
2021/03/02 02:58:41;;;;;;;11.55;2.80;;;;;;;1.18;100.00;101356.50;5074405;28;20040;-79
2021/03/02 03:01:50;;;;;;;7.03;3.22;;;;;;;1.21;100.00;101354.97;5062332;28;20051;-79
2021/03/02 03:05:06;;;;;;;5.75;2.00;;;;;;;1.20;100.00;101345.94;5062113;28;20056;-79
2021/03/02 03:08:17;;;;;;;13.65;4.80;;;;;;;1.22;100.00;101340.88;5062201;28;20422;-79
2021/03/02 03:11:28;;;;;;;3.92;2.03;;;;;;;1.22;100.00;101332.66;5074402;28;20051;-79
2021/03/02 03:14:37;;;;;;;6.07;4.00;;;;;;;1.25;100.00;101333.84;5074338;28;20440;-79
2021/03/02 03:17:45;;;;;;;17.00;3.80;;;;;;;1.25;100.00;101329.16;5061600;28;20048;-79
2021/03/02 03:20:49;;;;;;;6.03;3.22;;;;;;;1.26;100.00;101325.25;5062128;28;20047;-78
2021/03/02 03:23:53;;;;;;;8.05;3.88;;;;;;;1.28;100.00;101324.84;5073470;28;20063;-79
2021/03/02 03:26:57;;;;;;;10.57;3.10;;;;;;;1.30;100.00;101326.06;5074079;28;20119;-79
2021/03/02 03:30:02;;;;;;;14.15;3.28;;;;;;;1.28;100.00;101333.88;5061583;28;20045;-79
2021/03/02 03:33:09;;;;;;;7.55;3.42;;;;;;;1.28;100.00;101316.63;5073844;28;20040;-79
2021/03/02 03:36:13;;;;;;;6.18;2.67;;;;;;;1.30;100.00;101317.06;5061311;28;20047;-79
2021/03/02 03:39:17;;;;;;;11.70;3.28;;;;;;;1.30;100.00;101326.06;5073426;28;20052;-78
2021/03/02 03:42:20;;;;;;;7.25;3.30;;;;;;;1.31;100.00;101318.63;5061414;28;20048;-79
2021/03/02 03:45:23;;;;;;;8.25;2.88;;;;;;;1.31;100.00;101322.16;5073697;28;20047;-79
2021/03/02 03:48:27;;;;;;;4.18;1.85;;;;;;;1.29;100.00;101316.25;5061348;28;20055;-79
2021/03/02 03:51:31;;;;;;;11.02;4.22;;;;;;;1.25;100.00;101312.69;5060899;28;20047;-79
2021/03/02 03:54:35;;;;;;;5.78;2.55;;;;;;;1.20;100.00;101304.81;5073392;28;20043;-79
2021/03/02 03:57:39;;;;;;;8.00;2.75;;;;;;;1.12;100.00;101297.66;5061221;28;20059;-79
2021/03/02 04:00:43;;;;;;;4.82;2.95;;;;;;;1.07;100.00;101297.22;5060946;28;20043;-78
2021/03/02 04:03:47;;;;;;;6.68;2.63;;;;;;;1.03;100.00;101310.88;5060986;28;20068;-78
2021/03/02 04:06:51;;;;;;;2.90;2.10;;;;;;;1.02;100.00;101314.03;5060917;28;20599;-79
2021/03/02 04:09:56;;;;;;;7.43;1.70;;;;;;;1.00;100.00;101306.16;5073764;28;20063;-79
2021/03/02 04:13:08;;;;;;;3.92;2.40;;;;;;;0.99;100.00;101307.31;5060590;28;20059;-79
2021/03/02 04:16:12;;;;;;;4.38;2.47;;;;;;;1.01;100.00;101313.22;5073009;28;20496;-79
2021/03/02 04:19:15;;;;;;;4.43;2.83;;;;;;;1.03;100.00;101310.09;5060782;28;20063;-78
2021/03/02 04:22:18;;;;;;;3.78;2.65;;;;;;;1.02;100.00;101309.31;5060564;28;20044;-79
2021/03/02 04:25:22;;;;;;;15.82;5.50;;;;;;;1.03;100.00;101308.16;5060539;28;20047;-79
2021/03/02 04:28:25;;;;;;;10.57;3.00;;;;;;;1.05;100.00;101303.06;5060355;28;20047;-79
2021/03/02 04:31:29;;;;;;;2.83;2.15;;;;;;;1.05;100.00;101313.25;5072504;28;20508;-78
2021/03/02 04:34:32;;;;;;;4.68;2.67;;;;;;;1.05;100.00;101299.53;5060199;28;20044;-79
2021/03/02 04:37:37;;;;;;;10.63;4.32;;;;;;;1.06;100.00;101306.63;5059317;28;20039;-79
2021/03/02 04:40:40;;;;;;;11.00;3.72;;;;;;;1.08;100.00;101299.59;5060129;28;20039;-79
2021/03/02 04:43:44;;;;;;;23.92;3.72;;;;;;;1.09;100.00;101297.63;5060020;28;20048;-78
2021/03/02 04:46:47;;;;;;;10.23;2.33;;;;;;;1.10;100.00;101302.75;5072668;28;20047;-78
2021/03/02 04:49:50;;;;;;;3.83;1.70;;;;;;;1.11;100.00;101296.09;5060061;28;20512;-78
2021/03/02 04:52:54;;;;;;;3.55;2.05;;;;;;;1.13;100.00;101298.44;5070816;28;20409;-78
2021/03/02 04:55:57;;;;;;;16.30;4.07;;;;;;;1.11;100.00;101296.09;5072155;28;20519;-79
2021/03/02 04:59:00;;;;;;;7.82;3.50;;;;;;;1.12;100.00;101297.66;5060101;28;20048;-79
2021/03/02 05:02:04;;;;;;;8.93;2.78;;;;;;;1.13;100.00;101299.22;5060061;28;20409;-79
2021/03/02 05:05:08;;;;;;;3.00;2.25;;;;;;;1.12;100.00;101294.13;5072612;28;20056;-78
2021/03/02 05:08:11;;;;;;;5.45;2.25;;;;;;;1.12;100.00;101296.88;5059877;28;20055;-79
2021/03/02 05:11:15;;;;;;;5.00;2.50;;;;;;;1.13;100.00;101299.22;5059820;28;20421;-79
2021/03/02 05:14:18;;;;;;;5.55;3.13;;;;;;;1.13;100.00;101298.44;5071796;28;20047;-79
2021/03/02 05:17:21;;;;;;;7.10;2.67;;;;;;;1.06;100.00;101290.94;5059421;28;20064;-79
2021/03/02 05:20:24;;;;;;;4.50;2.50;;;;;;;1.04;100.00;101287.78;5059509;28;20051;-79
2021/03/02 05:23:28;;;;;;;6.40;2.40;;;;;;;1.02;100.00;101295.59;5059273;28;20060;-79
2021/03/02 05:26:32;;;;;;;6.15;1.55;;;;;;;0.99;100.00;101299.09;5059336;28;20055;-79
2021/03/02 05:29:35;;;;;;;8.85;3.13;;;;;;;0.92;100.00;101285.31;5059233;28;20047;-79
2021/03/02 05:32:38;;;;;;;1.38;1.33;;;;;;;0.86;100.00;101288.75;5059218;28;20500;-79
2021/03/02 05:35:41;;;;;;;8.05;2.17;;;;;;;0.81;100.00;101287.13;5059481;28;20051;-79
2021/03/02 05:38:45;;;;;;;10.05;3.00;;;;;;;0.78;100.00;101290.59;5059355;28;20508;-79
2021/03/02 05:41:50;;;;;;;6.10;2.47;;;;;;;0.76;100.00;101280.03;5059178;28;20043;-78
2021/03/02 05:44:54;;;;;;;4.18;2.47;;;;;;;0.75;100.00;101294.91;5059280;28;20047;-78
2021/03/02 05:47:59;;;;;;;6.97;1.25;;;;;;;0.76;100.00;101295.69;5060880;28;20067;-79
2021/03/02 05:51:03;;;;;;;4.68;2.38;;;;;;;0.78;100.00;101298.84;5063392;28;20047;-79
2021/03/02 05:54:07;;;;;;;5.85;2.10;;;;;;;0.79;100.00;101300.44;5075932;28;20055;-78
2021/03/02 05:57:12;;;;;;;2.65;1.95;;;;;;;0.78;100.00;101293.34;5063358;28;20508;-79
2021/03/02 06:00:16;;;;;;;7.63;3.65;;;;;;;0.76;100.00;101295.69;5063303;28;20051;-79
2021/03/02 06:03:20;;;;;;;9.60;2.45;;;;;;;0.73;100.00;101285.47;5063118;28;20044;-79
2021/03/02 06:06:23;;;;;;;10.20;3.65;;;;;;;0.70;100.00;101292.50;5063380;28;20044;-79
2021/03/02 06:09:29;;;;;;;2.70;1.27;;;;;;;0.67;100.00;101287.75;5063183;28;20051;-79
2021/03/02 06:12:55;;;;;;;3.45;2.53;;;;;;;0.64;100.00;101287.72;5063190;28;20043;-79
2021/03/02 06:15:59;;;;;;;7.18;2.75;;;;;;;0.64;100.00;101293.19;5063010;28;20051;-80
2021/03/02 06:19:02;;;;;;;1.80;1.63;;;;;;;0.65;100.00;101289.31;5062939;28;20051;-79
2021/03/02 06:22:08;;;;;;;5.53;2.58;;;;;;;0.68;100.00;101285.81;5063162;28;20055;-79
2021/03/02 06:25:29;;;;;;;2.08;1.70;;;;;;;0.69;100.00;101287.41;5063342;28;20059;-79
2021/03/02 06:28:37;;;;;;;4.80;2.53;;;;;;;0.69;100.00;101301.09;5075294;28;20547;-78
2021/03/02 06:31:42;;;;;;;4.95;2.33;;;;;;;0.71;100.00;101287.81;5062694;28;20052;-80
2021/03/02 06:34:49;;;;;;;12.52;2.42;;;;;;;0.74;100.00;101298.00;5075166;28;20043;-79
2021/03/02 06:37:53;;;;;;;12.00;3.35;;;;;;;0.75;100.00;101294.13;5075353;28;20051;-78
2021/03/02 06:40:56;;;;;;;8.95;1.92;;;;;;;0.77;100.00;101297.28;5062737;28;20048;-77
2021/03/02 06:44:10;;;;;;;8.25;3.58;;;;;;;0.78;100.00;101296.09;5075019;28;20051;-80
2021/03/02 06:47:30;;;;;;;1.05;1.05;;;;;;;0.77;100.00;101297.28;5062705;28;20071;-79
2021/03/02 06:50:38;;;;;;;8.88;1.67;;;;;;;0.74;100.00;101303.50;5062439;28;20051;-79
2021/03/02 06:54:18;;;;;;;7.63;3.47;;;;;;;0.74;100.00;101303.50;5074772;28;20043;-79
2021/03/02 06:57:23;;;;;;;6.07;1.35;;;;;;;0.71;100.00;101309.75;5062498;28;20047;-81
2021/03/02 07:00:32;;;;;;;7.35;1.73;;;;;;;0.71;100.00;101315.22;5062025;28;20047;-79
2021/03/02 07:03:37;;;;;;;14.70;1.88;;;;;;;0.71;100.00;101317.97;5075045;28;20056;-78
2021/03/02 07:06:44;;;;;;;6.90;2.20;;;;;;;0.73;100.00;101323.88;5076002;28;20504;-81
2021/03/02 07:09:49;;;;;;;3.30;2.67;;;;;;;0.72;100.00;101316.78;5061059;28;20063;-79
2021/03/02 07:12:55;;;;;;;9.43;2.97;;;;;;;0.76;100.00;101320.34;5074969;28;20047;-77
2021/03/02 07:15:59;;;;;;;5.32;2.05;;;;;;;0.77;100.00;101314.53;5062179;28;20504;-79
2021/03/02 07:19:04;;;;;;;13.80;2.85;;;;;;;0.81;100.00;101327.47;5062185;28;20075;-77
2021/03/02 07:22:11;;;;;;;15.45;2.65;;;;;;;0.85;100.00;101326.34;5073990;28;20044;-78
2021/03/02 07:25:19;;;;;;;3.70;1.92;;;;;;;0.87;100.00;101334.97;5073748;28;20052;-78
2021/03/02 07:28:30;;;;;;;10.02;2.00;;;;;;;0.88;100.00;101333.84;5074059;28;20060;-78
2021/03/02 07:31:36;;;;;;;3.03;1.05;;;;;;;0.90;100.00;101339.72;5062205;28;20576;-78
2021/03/02 07:34:45;;;;;;;22.15;2.75;;;;;;;0.87;100.00;101340.47;5074715;28;20039;-76
2021/03/02 07:37:49;;;;;;;18.00;2.95;;;;;;;0.84;100.00;101346.72;5062099;28;20452;-76
2021/03/02 07:40:56;;;;;;;4.15;1.67;;;;;;;0.81;100.00;101358.41;5061944;28;20063;-77
2021/03/02 07:43:59;;;;;;;2.92;2.65;;;;;;;0.79;100.00;101355.25;5061938;28;20496;-78
2021/03/02 07:47:02;;;;;;;7.28;3.00;;;;;;;0.81;100.00;101363.91;5061888;28;20063;-78
2021/03/02 07:50:14;;;;;;;15.65;3.30;;;;;;;0.84;100.00;101356.88;5061032;28;20048;-78
2021/03/02 07:53:19;;;;;;;8.82;2.28;;;;;;;0.84;100.00;101363.16;5061342;28;20055;-78
2021/03/02 07:56:23;;;;;;;6.82;2.67;;;;;;;0.86;100.00;101360.03;5060653;28;20065;-76
2021/03/02 07:59:27;;;;;;;4.18;2.03;;;;;;;0.89;100.00;101354.59;5073288;28;20500;-78
2021/03/02 08:02:30;;;;;;;9.85;2.85;;;;;;;0.93;100.00;101352.72;5073197;28;20052;-78
2021/03/02 08:05:34;;;;;;;23.48;2.67;;;;;;;0.96;100.00;101354.69;5061115;28;20068;-78
2021/03/02 08:08:39;;;;;;;3.83;2.25;;;;;;;1.02;100.00;101347.69;5073497;28;20047;-78
2021/03/02 08:11:43;;;;;;;5.85;3.60;;;;;;;1.09;100.00;101356.00;5072921;28;20048;-78
2021/03/02 08:14:47;;;;;;;4.32;1.58;;;;;;;1.15;100.00;101354.50;5060848;28;20059;-78
2021/03/02 08:17:50;;;;;;;8.70;3.15;;;;;;;1.12;100.00;101355.28;5073097;28;20047;-78
2021/03/02 08:21:07;;;;;;;9.02;2.63;;;;;;;1.14;100.00;101358.44;5061072;28;20067;-78
2021/03/02 08:24:11;;;;;;;0.63;0.60;;;;;;;1.19;100.00;101358.09;5060605;28;20055;-76
2021/03/02 08:27:33;;;;;;;1.50;1.35;;;;;;;1.24;100.00;101359.69;5072984;28;20051;-78
2021/03/02 08:30:38;;;;;;;4.78;1.38;;;;;;;1.24;100.00;101371.47;5060389;28;20047;-78
2021/03/02 08:33:42;;;;;;;3.45;2.33;;;;;;;1.21;100.00;101366.72;5054876;28;20098;-78
2021/03/02 08:36:51;;;;;;;11.05;2.25;;;;;;;1.16;100.00;101369.81;5072496;28;20047;-78
2021/03/02 08:39:54;;;;;;;8.88;3.15;;;;;;;1.20;100.00;101365.16;5060326;28;20051;-78
2021/03/02 08:43:23;;;;;;;3.63;2.05;;;;;;;1.27;100.00;101376.22;5060305;28;20047;-78
2021/03/02 08:46:33;;;;;;;1.23;1.13;;;;;;;1.37;100.00;101369.25;5051136;28;20410;-78
2021/03/02 08:49:45;;;;;;;10.25;1.73;;;;;;;1.43;100.00;101381.47;5044031;28;20055;-78
2021/03/02 08:52:48;;;;;;;5.68;1.88;;;;;;;1.44;100.00;101381.09;5047277;28;20394;-78
2021/03/02 08:55:52;;;;;;;1.70;0.70;;;;;;;1.47;100.00;101385.06;5064018;28;20048;-78
2021/03/02 08:59:14;;;;;;;6.32;1.58;;;;;;;1.45;100.00;101379.94;5051403;28;20063;-78
2021/03/02 09:02:18;;;;;;;3.92;1.63;;;;;;;1.45;100.00;101382.66;5051511;28;20044;-78
2021/03/02 09:05:21;;;;;;;7.63;2.50;;;;;;;1.43;100.00;101385.00;5052113;28;20043;-78
2021/03/02 09:08:24;;;;;;;3.97;1.95;;;;;;;1.44;100.00;101394.81;5054549;28;20154;-78
2021/03/02 09:11:34;;;;;;;6.47;2.45;;;;;;;1.48;100.00;101389.38;5058957;28;20405;-78
2021/03/02 09:14:40;;;;;;;5.30;2.15;;;;;;;1.54;100.00;101394.13;5072671;28;20039;-77
2021/03/02 09:17:44;;;;;;;6.57;2.45;;;;;;;1.58;100.00;101385.16;5058940;28;20091;-78
2021/03/02 09:20:54;;;;;;;5.50;1.10;;;;;;;1.64;100.00;101389.13;5059191;28;20039;-78
2021/03/02 09:23:59;;;;;;;6.65;1.52;;;;;;;1.64;100.00;101380.91;5056959;28;20492;-78
2021/03/02 09:27:05;;;;;;;5.88;3.42;;;;;;;1.67;100.00;101391.13;5058042;28;20044;-78
2021/03/02 09:30:09;;;;;;;7.72;2.78;;;;;;;1.70;100.00;101396.66;5082297;28;20055;-77
2021/03/02 09:33:13;;;;;;;10.32;2.72;;;;;;;1.79;100.00;101388.91;5051507;28;20064;-78
2021/03/02 09:36:18;;;;;;;6.03;3.05;;;;;;;1.84;100.00;101394.03;5055198;28;20035;-77
2021/03/02 09:39:25;;;;;;;12.48;3.40;;;;;;;1.90;100.00;101397.22;5071847;28;20059;-77
2021/03/02 09:42:31;;;;;;;14.93;3.97;;;;;;;1.91;100.00;101398.78;5059364;28;20039;-78
2021/03/02 09:45:34;;;;;;;10.73;3.83;;;;;;;1.87;100.00;101400.72;5071596;28;20056;-78
2021/03/02 09:48:47;;;;;;;6.30;2.95;;;;;;;1.92;100.00;101401.19;5059444;28;20062;-78
2021/03/02 09:51:51;;;;;;;10.60;2.88;;;;;;;2.01;100.00;101400.88;5058935;28;20055;-78
2021/03/02 09:55:24;;;;;;;25.23;4.70;;;;;;;2.09;100.00;101397.00;5058971;28;20052;-78
2021/03/02 09:58:28;;;;;;;8.52;2.85;;;;;;;2.14;100.00;101405.66;5059299;28;20133;-78
2021/03/02 10:01:34;;;;;;;8.85;3.95;;;;;;;2.17;100.00;101406.88;5059416;28;20055;-78
2021/03/02 10:04:37;;;;;;;8.68;3.15;;;;;;;2.21;100.00;101404.94;5071462;28;20059;-78
2021/03/02 10:07:44;;;;;;;8.77;3.45;;;;;;;2.29;100.00;101415.63;5058915;28;20052;-78
2021/03/02 10:10:48;;;;;;;3.55;2.25;;;;;;;2.36;100.00;101409.38;5071538;28;20500;-78
2021/03/02 10:13:54;;;;;;;18.45;4.35;;;;;;;2.43;100.00;101403.91;5071569;28;20043;-78
2021/03/02 10:16:57;;;;;;;15.07;4.65;;;;;;;2.49;100.00;101405.13;5071398;28;20055;-78
2021/03/02 10:20:07;;;;;;;10.18;2.78;;;;;;;2.56;100.00;101396.94;5071649;28;20063;-78
2021/03/02 10:23:13;;;;;;;14.40;4.18;;;;;;;2.62;100.00;101395.41;5059120;28;20603;-78
2021/03/02 10:26:23;;;;;;;10.63;4.07;;;;;;;2.68;100.00;101391.13;5059105;28;20048;-78
2021/03/02 10:29:27;;;;;;;10.10;4.03;;;;;;;2.71;100.00;101398.59;5071846;28;20052;-78
2021/03/02 10:32:31;;;;;;;6.30;3.08;;;;;;;2.67;100.00;101392.28;5071656;28;20052;-78
2021/03/02 10:35:34;;;;;;;17.40;4.88;;;;;;;2.63;100.00;101391.50;5062754;28;20039;-78
2021/03/02 10:38:37;;;;;;;12.82;4.95;;;;;;;2.63;100.00;101399.75;5061836;28;20039;-78
2021/03/02 10:41:42;;;;;;;9.20;3.72;;;;;;;2.67;100.00;101397.00;5062032;28;20503;-78
2021/03/02 10:44:46;;;;;;;12.15;2.67;;;;;;;2.70;100.00;101397.03;5071348;28;20040;-78
2021/03/02 10:47:49;;;;;;;15.43;5.05;;;;;;;2.76;100.00;101401.00;5074773;28;20052;-78
2021/03/02 10:50:53;;;;;;;11.20;3.65;;;;;;;2.87;100.00;101395.53;5062538;28;20051;-79
2021/03/02 10:53:56;;;;;;;19.95;4.80;;;;;;;2.99;100.00;101382.22;5062303;28;20063;-78
2021/03/02 10:57:00;;;;;;;9.30;2.95;;;;;;;3.17;100.00;101389.75;5074543;28;20063;-78
2021/03/02 11:00:05;;;;;;;12.35;3.70;;;;;;;3.34;100.00;101397.28;5062366;28;20401;-78
2021/03/02 11:03:09;;;;;;;10.55;2.60;;;;;;;3.40;100.00;101379.25;5074642;28;20146;-78
2021/03/02 11:06:13;;;;;;;17.35;3.88;;;;;;;3.50;100.00;101390.28;5061881;28;20047;-78
2021/03/02 11:09:17;;;;;;;10.93;2.95;;;;;;;3.58;100.00;101386.34;5073930;28;20055;-78
2021/03/02 11:12:20;;;;;;;11.57;4.55;;;;;;;3.66;100.00;101387.16;5061832;28;20397;-78
2021/03/02 11:15:23;;;;;;;8.57;2.90;;;;;;;3.77;100.00;101385.19;5061901;28;20055;-78
2021/03/02 11:18:26;;;;;;;13.90;4.47;;;;;;;3.84;100.00;101380.47;5061683;28;20052;-78
2021/03/02 11:21:30;;;;;;;20.63;4.25;;;;;;;3.98;100.00;101382.47;5061645;28;20046;-78
2021/03/02 11:24:33;;;;;;;16.35;4.47;;;;;;;3.94;100.00;101376.16;5061414;28;20060;-78
2021/03/02 11:27:37;;;;;;;11.77;3.75;;;;;;;4.03;100.00;101373.78;5061606;28;20048;-78
2021/03/02 11:30:41;;;;;;;8.25;3.28;;;;;;;4.09;100.00;101377.75;5061433;28;20051;-78
2021/03/02 11:33:45;;;;;;;19.15;3.60;;;;;;;4.20;100.00;101377.72;5074020;28;20497;-78
2021/03/02 11:36:48;;;;;;;12.20;3.88;;;;;;;4.20;100.00;101378.50;5074197;28;20039;-78
2021/03/02 11:39:51;;;;;;;17.67;3.65;;;;;;;4.18;100.00;101375.34;5073657;28;20052;-78
2021/03/02 11:42:56;;;;;;;13.60;3.72;;;;;;;4.07;100.00;101385.59;5061054;28;20067;-78
2021/03/02 11:46:00;;;;;;;13.23;3.97;;;;;;;4.06;100.00;101373.00;5073243;28;20067;-78
2021/03/02 11:49:03;;;;;;;3.65;2.08;;;;;;;4.11;100.00;101380.88;5074016;28;20044;-78
2021/03/02 11:52:07;;;;;;;15.55;5.05;;;;;;;4.11;100.00;101367.09;5073497;28;20056;-78
2021/03/02 11:55:11;;;;;;;9.82;4.40;;;;;;;4.29;100.00;101365.09;5061418;28;20085;-78
2021/03/02 11:58:14;;;;;;;14.88;2.80;;;;;;;4.33;100.00;101365.13;5073385;28;20043;-78
2021/03/02 12:01:18;;;;;;;8.93;3.83;;;;;;;4.48;100.00;101364.66;5061121;28;20051;-79
2021/03/02 12:04:21;;;;;;;10.65;3.75;;;;;;;4.46;100.00;101352.47;5060906;28;20056;-78
2021/03/02 12:07:24;;;;;;;8.95;4.45;;;;;;;4.40;100.00;101352.09;5060724;28;20512;-78
2021/03/02 12:10:27;;;;;;;6.25;2.63;;;;;;;4.46;100.00;101350.50;5073033;28;20055;-78
2021/03/02 12:13:31;;;;;;;9.18;4.68;;;;;;;4.59;100.00;101351.66;5060329;28;20043;-77
2021/03/02 12:16:34;;;;;;;10.05;2.97;;;;;;;4.66;100.00;101341.78;5072613;28;20056;-78
2021/03/02 12:19:38;;;;;;;7.03;3.33;;;;;;;4.65;100.00;101332.72;5072402;28;20492;-78
2021/03/02 12:22:42;;;;;;;29.45;5.93;;;;;;;4.73;100.00;101330.72;5042540;28;20052;-78
2021/03/02 12:25:45;;;;;;;10.13;3.60;;;;;;;4.69;100.00;101327.19;5059756;28;20373;-78
2021/03/02 12:28:48;;;;;;;14.57;4.15;;;;;;;4.75;100.00;101320.06;5072358;28;20040;-78
2021/03/02 12:31:52;;;;;;;7.43;3.33;;;;;;;4.83;100.00;101316.09;5059719;28;20067;-78
2021/03/02 12:34:56;;;;;;;11.75;4.32;;;;;;;4.87;100.00;101303.06;5083342;28;20040;-79
2021/03/02 12:37:59;;;;;;;12.52;3.03;;;;;;;4.85;100.00;101297.16;5060571;28;20047;-78
2021/03/02 12:41:03;;;;;;;11.07;3.42;;;;;;;4.87;100.00;101305.84;5060751;28;20107;-78
2021/03/02 12:44:06;;;;;;;12.55;4.78;;;;;;;4.87;100.00;101306.63;5083536;28;20063;-78
2021/03/02 12:47:10;;;;;;;10.88;3.60;;;;;;;4.99;100.00;101292.34;5083432;28;20048;-78
2021/03/02 12:50:13;;;;;;;16.60;3.88;;;;;;;5.07;100.00;101301.38;5072759;28;20504;-78
2021/03/02 12:53:17;;;;;;;10.40;2.95;;;;;;;5.05;100.00;101284.44;5072467;28;20071;-78
2021/03/02 12:56:20;;;;;;;11.35;3.08;;;;;;;4.97;100.00;101280.13;5083160;28;20044;-78
2021/03/02 12:59:24;;;;;;;5.90;3.00;;;;;;;4.75;100.00;101284.19;5083831;28;20504;-78
2021/03/02 13:02:29;;;;;;;13.73;3.80;;;;;;;4.52;100.00;101279.97;5060237;28;20044;-78
2021/03/02 13:05:34;;;;;;;26.67;4.93;;;;;;;4.38;100.00;101274.47;5072441;28;20074;-78
2021/03/02 13:08:38;;;;;;;9.68;3.33;;;;;;;4.28;100.00;101275.31;5072359;28;20164;-78
2021/03/02 13:11:44;;;;;;;9.48;3.70;;;;;;;4.17;100.00;101280.06;5059718;28;20051;-77
2021/03/02 13:14:48;;;;;;;7.95;3.70;;;;;;;4.13;100.00;101273.78;5072203;28;20043;-78
2021/03/02 13:17:52;;;;;;;7.90;2.85;;;;;;;4.01;100.00;101274.16;5059258;28;20059;-78
2021/03/02 13:20:57;;;;;;;12.93;4.78;;;;;;;3.95;100.00;101267.50;5060069;28;20389;-78
2021/03/02 13:24:00;;;;;;;12.90;4.63;;;;;;;3.97;100.00;101256.84;5072155;28;20048;-77
2021/03/02 13:27:07;;;;;;;18.27;4.55;;;;;;;4.07;100.00;101253.28;5071869;28;20048;-78
2021/03/02 13:30:17;;;;;;;16.08;5.55;;;;;;;4.25;100.00;101250.47;5072152;28;20043;-78
2021/03/02 13:33:25;;;;;;;14.70;5.32;;;;;;;4.52;100.00;101255.13;5059620;28;20055;-78
2021/03/02 13:36:29;;;;;;;14.30;4.05;;;;;;;4.88;100.00;101252.19;5059363;28;20389;-78
2021/03/02 13:39:33;;;;;;;11.10;4.53;;;;;;;5.05;100.00;101256.81;5059411;28;20099;-79
2021/03/02 13:42:42;;;;;;;10.70;3.97;;;;;;;5.15;100.00;101250.47;5059361;28;20063;-78
2021/03/02 13:45:53;;;;;;;10.18;4.25;;;;;;;5.22;100.00;101236.59;5059478;28;20102;-78
2021/03/02 13:48:57;;;;;;;14.70;5.33;;;;;;;5.29;100.00;101228.25;5072018;28;20397;-78
2021/03/02 13:52:02;;;;;;;9.75;3.65;;;;;;;5.30;100.00;101232.59;5070523;28;20404;-79
2021/03/02 13:55:07;;;;;;;14.63;6.15;;;;;;;5.39;100.00;101232.94;5071939;28;20417;-79
2021/03/02 13:58:11;;;;;;;12.32;4.05;;;;;;;5.40;100.00;101234.47;5070850;28;20052;-79
2021/03/02 14:01:14;;;;;;;13.32;4.00;;;;;;;5.38;100.00;101232.13;5059447;28;20067;-78
2021/03/02 14:04:19;;;;;;;23.77;4.88;;;;;;;5.42;100.00;101226.56;5071601;28;20047;-78
2021/03/02 14:07:24;;;;;;;18.63;4.80;;;;;;;5.45;100.00;101220.25;5059247;28;20043;-78
2021/03/02 14:10:28;;;;;;;8.50;3.17;;;;;;;5.58;100.00;101221.31;5062788;28;20397;-78
2021/03/02 14:13:32;;;;;;;17.20;5.10;;;;;;;5.59;100.00;101219.34;5062064;28;20059;-78
2021/03/02 14:16:36;;;;;;;28.83;5.47;;;;;;;5.65;100.00;101223.22;5074900;28;20060;-78
2021/03/02 14:19:41;;;;;;;8.15;4.03;;;;;;;5.63;100.00;101220.84;5082436;28;20043;-78